createdAt,value
2017-08-12T00:01:08.238Z,15.7
2017-08-12T00:02:18.196Z,15.65
2017-08-12T00:03:28.476Z,15.66
2017-08-12T00:04:38.434Z,15.65
2017-08-12T00:05:48.077Z,15.65
2017-08-12T00:06:58.034Z,15.62
2017-08-12T00:08:07.676Z,15.51
2017-08-12T00:09:17.960Z,15.57
2017-08-12T00:10:27.915Z,15.47
2017-08-12T00:11:38.187Z,15.48
2017-08-12T00:12:48.142Z,15.48
2017-08-12T00:13:58.413Z,15.44
2017-08-12T00:15:08.687Z,15.39
2017-08-12T00:16:18.957Z,15.32
2017-08-12T00:17:28.913Z,15.35
2017-08-12T00:18:39.187Z,15.3
2017-08-12T00:19:49.460Z,15.26
2017-08-12T00:20:59.731Z,15.22
2017-08-12T00:22:09.692Z,15.19
2017-08-12T00:23:19.647Z,15.18
2017-08-12T00:24:29.603Z,15.08
2017-08-12T00:25:39.873Z,15.05
2017-08-12T00:26:50.142Z,15.05
2017-08-12T00:28:00.413Z,15.04
2017-08-12T00:29:10.375Z,14.94
2017-08-12T00:30:20.330Z,14.97
2017-08-12T00:31:30.599Z,14.99
2017-08-12T00:32:40.873Z,14.96
2017-08-12T00:33:50.520Z,14.97
2017-08-12T00:35:00.795Z,14.97
2017-08-12T00:36:11.072Z,14.99
2017-08-12T00:37:21.345Z,14.94
2017-08-12T00:38:31.617Z,14.97
2017-08-12T00:39:41.574Z,14.89
2017-08-12T00:40:51.528Z,14.96
2017-08-12T00:42:01.179Z,14.87
2017-08-12T00:43:11.450Z,14.92
2017-08-12T00:44:21.409Z,14.94
2017-08-12T00:45:31.680Z,15.02
2017-08-12T00:46:41.639Z,14.97
2017-08-12T00:47:51.916Z,14.97
2017-08-12T00:49:02.189Z,14.86
2017-08-12T00:50:12.457Z,14.96
2017-08-12T00:51:22.743Z,14.89
2017-08-12T00:52:32.698Z,14.93
2017-08-12T00:53:42.969Z,14.77
2017-08-12T00:54:53.238Z,14.82
2017-08-12T00:56:03.195Z,14.78
2017-08-12T00:57:13.468Z,14.9
2017-08-12T00:58:23.737Z,14.73
2017-08-12T00:59:33.692Z,14.73
2017-08-12T01:00:43.070Z,14.68
2017-08-12T01:01:53.027Z,14.82
2017-08-12T01:03:02.983Z,14.81
2017-08-12T01:04:12.630Z,14.79
2017-08-12T01:05:22.589Z,14.77
2017-08-12T01:06:32.861Z,14.66
2017-08-12T01:07:42.820Z,14.68
2017-08-12T01:08:52.774Z,14.66
2017-08-12T01:10:03.044Z,14.63
2017-08-12T01:11:12.686Z,14.58
2017-08-12T01:12:22.640Z,14.7
2017-08-12T01:13:32.598Z,14.61
2017-08-12T01:14:42.893Z,14.58
2017-08-12T01:15:53.203Z,14.68
2017-08-12T01:17:02.851Z,14.67
2017-08-12T01:18:12.806Z,14.62
2017-08-12T01:19:22.763Z,14.61
2017-08-12T01:20:32.723Z,14.66
2017-08-12T01:21:42.992Z,14.59
2017-08-12T01:22:53.274Z,14.71
2017-08-12T01:24:03.234Z,14.74
2017-08-12T01:25:13.507Z,14.59
2017-08-12T01:26:23.782Z,14.59
2017-08-12T01:27:33.741Z,14.73
2017-08-12T01:28:44.012Z,14.78
2017-08-12T01:29:54.286Z,14.77
2017-08-12T01:31:03.930Z,14.74
2017-08-12T01:32:14.199Z,14.74
2017-08-12T01:33:24.185Z,14.82
2017-08-12T01:34:34.139Z,14.82
2017-08-12T01:35:44.412Z,14.77
2017-08-12T01:36:54.683Z,14.78
2017-08-12T01:38:04.961Z,14.77
2017-08-12T01:39:15.235Z,14.73
2017-08-12T01:40:25.199Z,14.73
2017-08-12T01:41:35.157Z,14.74
2017-08-12T01:42:45.432Z,14.78
2017-08-12T01:43:55.703Z,14.77
2017-08-12T01:45:05.975Z,14.82
2017-08-12T01:46:16.255Z,14.79
2017-08-12T01:47:26.215Z,14.73
2017-08-12T01:48:36.491Z,14.74
2017-08-12T01:49:46.760Z,14.67
2017-08-12T01:50:57.036Z,14.66
2017-08-12T01:52:07.315Z,14.63
2017-08-12T01:53:16.954Z,14.63
2017-08-12T01:54:27.229Z,14.62
2017-08-12T01:55:37.189Z,14.66
2017-08-12T01:56:47.490Z,14.59
2017-08-12T01:57:57.766Z,14.52
2017-08-12T01:59:08.040Z,14.55
2017-08-12T02:00:17.370Z,14.53
2017-08-12T02:01:27.646Z,14.58
2017-08-12T02:02:37.607Z,14.51
2017-08-12T02:03:47.562Z,14.55
2017-08-12T02:04:57.865Z,14.59
2017-08-12T02:06:08.138Z,14.63
2017-08-12T02:07:17.778Z,14.59
2017-08-12T02:08:27.424Z,14.49
2017-08-12T02:09:37.380Z,14.55
2017-08-12T02:10:47.338Z,14.53
2017-08-12T02:11:57.609Z,14.55
2017-08-12T02:13:07.565Z,14.58
2017-08-12T02:14:17.620Z,14.55
2017-08-12T02:15:27.262Z,14.67
2017-08-12T02:16:37.220Z,14.66
2017-08-12T02:17:47.179Z,14.52
2017-08-12T02:18:57.449Z,14.62
2017-08-12T02:20:07.745Z,14.67
2017-08-12T02:21:18.022Z,14.58
2017-08-12T02:22:28.291Z,14.51
2017-08-12T02:23:38.561Z,14.55
2017-08-12T02:24:48.834Z,14.55
2017-08-12T02:25:58.790Z,14.55
2017-08-12T02:27:08.744Z,14.52
2017-08-12T02:28:19.015Z,14.58
2017-08-12T02:29:29.282Z,14.55
2017-08-12T02:30:39.561Z,14.53
2017-08-12T02:31:49.837Z,14.55
2017-08-12T02:33:00.110Z,14.56
2017-08-12T02:34:10.388Z,14.52
2017-08-12T02:35:20.661Z,14.52
2017-08-12T02:36:30.302Z,14.45
2017-08-12T02:37:40.577Z,14.48
2017-08-12T02:38:50.540Z,14.52
2017-08-12T02:40:00.498Z,14.53
2017-08-12T02:41:10.460Z,14.51
2017-08-12T02:42:20.732Z,14.49
2017-08-12T02:43:30.066Z,14.55
2017-08-12T02:44:40.336Z,14.58
2017-08-12T02:45:50.617Z,14.48
2017-08-12T02:47:00.885Z,14.56
2017-08-12T02:48:10.844Z,14.58
2017-08-12T02:49:20.801Z,14.44
2017-08-12T02:50:31.084Z,14.56
2017-08-12T02:51:41.368Z,14.44
2017-08-12T02:52:50.698Z,14.44
2017-08-12T02:54:00.974Z,14.43
2017-08-12T02:55:10.966Z,14.48
2017-08-12T02:56:21.242Z,14.38
2017-08-12T02:57:31.515Z,14.38
2017-08-12T02:58:41.785Z,14.51
2017-08-12T02:59:51.749Z,14.37
2017-08-12T03:01:02.021Z,14.34
2017-08-12T03:02:12.294Z,14.41
2017-08-12T03:03:22.256Z,14.38
2017-08-12T03:04:32.535Z,14.41
2017-08-12T03:05:42.490Z,14.44
2017-08-12T03:06:52.451Z,14.43
2017-08-12T03:08:02.409Z,14.53
2017-08-12T03:09:12.684Z,14.38
2017-08-12T03:10:22.975Z,14.34
2017-08-12T03:11:33.250Z,14.44
2017-08-12T03:12:43.521Z,14.37
2017-08-12T03:13:53.793Z,14.33
2017-08-12T03:15:03.751Z,14.44
2017-08-12T03:16:14.018Z,14.4
2017-08-12T03:17:23.970Z,14.38
2017-08-12T03:18:33.929Z,14.37
2017-08-12T03:19:44.200Z,14.37
2017-08-12T03:20:54.474Z,14.37
2017-08-12T03:22:04.771Z,14.38
2017-08-12T03:23:14.728Z,14.4
2017-08-12T03:24:24.682Z,14.43
2017-08-12T03:25:34.011Z,14.41
2017-08-12T03:26:44.281Z,14.36
2017-08-12T03:27:54.550Z,14.34
2017-08-12T03:29:04.504Z,14.45
2017-08-12T03:30:14.778Z,14.43
2017-08-12T03:31:24.750Z,14.45
2017-08-12T03:32:34.707Z,14.34
2017-08-12T03:33:44.976Z,14.36
2017-08-12T03:34:54.932Z,14.33
2017-08-12T03:36:05.203Z,14.34
2017-08-12T03:37:15.158Z,14.38
2017-08-12T03:38:25.118Z,14.37
2017-08-12T03:39:35.388Z,14.36
2017-08-12T03:40:45.660Z,14.36
2017-08-12T03:41:55.617Z,14.37
2017-08-12T03:43:05.574Z,14.58
2017-08-12T03:44:15.844Z,14.36
2017-08-12T03:45:26.122Z,14.48
2017-08-12T03:46:36.406Z,14.41
2017-08-12T03:47:46.680Z,14.51
2017-08-12T03:48:56.637Z,14.48
2017-08-12T03:50:06.601Z,14.44
2017-08-12T03:51:16.559Z,14.45
2017-08-12T03:52:26.832Z,14.37
2017-08-12T03:53:36.478Z,14.48
2017-08-12T03:54:46.749Z,14.48
2017-08-12T03:55:56.708Z,14.45
2017-08-12T03:57:06.670Z,14.51
2017-08-12T03:58:16.940Z,14.45
2017-08-12T03:59:26.901Z,14.45
2017-08-12T04:00:37.174Z,14.45
2017-08-12T04:01:47.126Z,14.51
2017-08-12T04:02:57.401Z,14.45
2017-08-12T04:04:07.675Z,14.43
2017-08-12T04:05:17.958Z,14.49
2017-08-12T04:06:27.605Z,14.43
2017-08-12T04:07:37.247Z,14.45
2017-08-12T04:08:47.210Z,14.56
2017-08-12T04:09:56.851Z,14.51
2017-08-12T04:11:07.123Z,14.48
2017-08-12T04:12:17.399Z,14.63
2017-08-12T04:13:27.676Z,14.44
2017-08-12T04:14:37.946Z,14.55
2017-08-12T04:15:48.216Z,14.56
2017-08-12T04:16:58.485Z,14.49
2017-08-12T04:18:08.758Z,14.56
2017-08-12T04:19:19.032Z,14.63
2017-08-12T04:20:29.311Z,14.51
2017-08-12T04:21:39.274Z,14.62
2017-08-12T04:22:49.549Z,14.63
2017-08-12T04:23:59.194Z,14.55
2017-08-12T04:25:09.154Z,14.51
2017-08-12T04:26:19.435Z,14.58
2017-08-12T04:27:29.736Z,14.53
2017-08-12T04:28:40.012Z,14.62
2017-08-12T04:29:50.280Z,14.58
2017-08-12T04:31:00.551Z,14.67
2017-08-12T04:32:10.827Z,14.68
2017-08-12T04:33:20.469Z,14.67
2017-08-12T04:34:30.423Z,14.67
2017-08-12T04:35:40.386Z,14.63
2017-08-12T04:36:50.659Z,14.73
2017-08-12T04:38:00.617Z,14.81
2017-08-12T04:39:10.890Z,14.77
2017-08-12T04:40:20.530Z,14.81
2017-08-12T04:41:30.496Z,14.81
2017-08-12T04:42:40.770Z,14.85
2017-08-12T04:43:51.046Z,14.9
2017-08-12T04:45:01.002Z,14.86
2017-08-12T04:46:11.273Z,14.94
2017-08-12T04:47:21.551Z,14.96
2017-08-12T04:48:31.825Z,14.93
2017-08-12T04:49:41.786Z,15.05
2017-08-12T04:50:51.740Z,15.1
2017-08-12T04:52:01.698Z,15.07
2017-08-12T04:53:11.977Z,15.11
2017-08-12T04:54:21.952Z,15.18
2017-08-12T04:55:32.224Z,15.12
2017-08-12T04:56:41.872Z,15.14
2017-08-12T04:57:52.147Z,15.15
2017-08-12T04:59:02.108Z,15.26
2017-08-12T05:00:12.384Z,15.18
2017-08-12T05:01:22.034Z,15.19
2017-08-12T05:02:31.995Z,15.29
2017-08-12T05:03:41.645Z,15.12
2017-08-12T05:04:51.917Z,15.15
2017-08-12T05:06:02.192Z,15.1
2017-08-12T05:07:12.465Z,15.19
2017-08-12T05:08:22.425Z,15.26
2017-08-12T05:09:32.696Z,15.25
2017-08-12T05:10:42.970Z,15.23
2017-08-12T05:11:52.613Z,15.18
2017-08-12T05:13:02.887Z,15.32
2017-08-12T05:14:12.843Z,15.25
2017-08-12T05:15:23.114Z,15.37
2017-08-12T05:16:33.086Z,15.29
2017-08-12T05:17:43.364Z,15.32
2017-08-12T05:18:53.638Z,15.32
2017-08-12T05:20:03.910Z,15.32
2017-08-12T05:21:14.188Z,15.33
2017-08-12T05:22:24.145Z,15.3
2017-08-12T05:23:34.423Z,15.36
2017-08-12T05:24:44.697Z,15.3
2017-08-12T05:25:54.971Z,15.29
2017-08-12T05:27:05.238Z,15.27
2017-08-12T05:28:15.202Z,15.25
2017-08-12T05:29:25.163Z,15.29
2017-08-12T05:30:35.436Z,15.29
2017-08-12T05:31:45.714Z,15.22
2017-08-12T05:32:55.994Z,15.25
2017-08-12T05:34:06.315Z,15.18
2017-08-12T05:35:16.294Z,15.14
2017-08-12T05:36:26.568Z,15.14
2017-08-12T05:37:36.874Z,15.08
2017-08-12T05:38:47.154Z,15.08
2017-08-12T05:39:57.114Z,15.04
2017-08-12T05:41:07.398Z,15.08
2017-08-12T05:42:17.682Z,15.04
2017-08-12T05:43:27.969Z,15.08
2017-08-12T05:44:38.247Z,15.12
2017-08-12T05:45:48.209Z,15.1
2017-08-12T05:46:58.484Z,15.17
2017-08-12T05:48:08.447Z,15.15
2017-08-12T05:49:18.726Z,15.14
2017-08-12T05:50:28.998Z,15.14
2017-08-12T05:51:39.271Z,15.17
2017-08-12T05:52:49.545Z,15.14
2017-08-12T05:53:59.503Z,15.15
2017-08-12T05:55:09.781Z,15.14
2017-08-12T05:56:20.058Z,15.22
2017-08-12T05:57:30.035Z,15.27
2017-08-12T05:58:40.339Z,15.22
2017-08-12T05:59:50.611Z,15.27
2017-08-12T06:01:00.573Z,15.33
2017-08-12T06:02:10.844Z,15.36
2017-08-12T06:03:20.184Z,15.29
2017-08-12T06:04:30.468Z,15.41
2017-08-12T06:05:40.773Z,15.48
2017-08-12T06:06:50.730Z,15.43
2017-08-12T06:08:01.002Z,15.55
2017-08-12T06:09:10.960Z,15.62
2017-08-12T06:10:21.232Z,15.62
2017-08-12T06:11:31.512Z,15.65
2017-08-12T06:12:41.470Z,15.69
2017-08-12T06:13:51.741Z,15.66
2017-08-12T06:15:01.695Z,15.75
2017-08-12T06:16:11.344Z,15.81
2017-08-12T06:17:21.298Z,15.84
2017-08-12T06:18:31.573Z,15.92
2017-08-12T06:19:41.858Z,15.9
2017-08-12T06:20:52.134Z,15.9
2017-08-12T06:22:02.407Z,16.08
2017-08-12T06:23:12.682Z,16.09
2017-08-12T06:24:22.990Z,16.06
2017-08-12T06:25:32.953Z,16.18
2017-08-12T06:26:42.912Z,16.16
2017-08-12T06:27:53.192Z,16.31
2017-08-12T06:29:03.492Z,16.41
2017-08-12T06:30:13.766Z,16.41
2017-08-12T06:31:24.050Z,16.54
2017-08-12T06:32:33.693Z,16.54
2017-08-12T06:33:43.653Z,16.69
2017-08-12T06:34:53.925Z,16.68
2017-08-12T06:36:04.202Z,16.76
2017-08-12T06:37:14.168Z,16.72
2017-08-12T06:38:24.441Z,16.89
2017-08-12T06:39:34.718Z,16.94
2017-08-12T06:40:44.681Z,16.97
2017-08-12T06:41:54.643Z,17.04
2017-08-12T06:43:04.607Z,17.19
2017-08-12T06:44:14.571Z,17.28
2017-08-12T06:45:24.846Z,17.23
2017-08-12T06:46:35.127Z,17.35
2017-08-12T06:47:45.403Z,17.39
2017-08-12T06:48:55.677Z,17.52
2017-08-12T06:50:05.956Z,17.52
2017-08-12T06:51:16.238Z,17.66
2017-08-12T06:52:26.511Z,17.63
2017-08-12T06:53:36.470Z,17.66
2017-08-12T06:54:46.431Z,17.8
2017-08-12T06:55:56.707Z,17.94
2017-08-12T06:57:06.982Z,17.86
2017-08-12T06:58:16.951Z,17.88
2017-08-12T06:59:26.915Z,17.98
2017-08-12T07:00:36.249Z,17.98
2017-08-12T07:01:46.522Z,18.02
2017-08-12T07:02:56.797Z,18.02
2017-08-12T07:04:07.073Z,18.02
2017-08-12T07:05:17.361Z,17.95
2017-08-12T07:06:27.641Z,17.93
2017-08-12T07:07:37.289Z,18.03
2017-08-12T07:08:47.563Z,18.02
2017-08-12T07:09:57.839Z,18.03
2017-08-12T07:11:07.488Z,18.15
2017-08-12T07:12:17.138Z,18
2017-08-12T07:13:27.130Z,18.09
2017-08-12T07:14:37.093Z,18.05
2017-08-12T07:15:47.369Z,18.18
2017-08-12T07:16:57.330Z,18.24
2017-08-12T07:18:07.605Z,18.18
2017-08-12T07:19:17.880Z,18.24
2017-08-12T07:20:27.841Z,18.27
2017-08-12T07:21:38.124Z,18.27
2017-08-12T07:22:48.402Z,18.39
2017-08-12T07:23:58.363Z,18.49
2017-08-12T07:25:08.637Z,18.48
2017-08-12T07:26:17.971Z,18.6
2017-08-12T07:27:27.932Z,18.61
2017-08-12T07:28:38.207Z,18.78
2017-08-12T07:29:48.170Z,18.76
2017-08-12T07:30:58.457Z,18.79
2017-08-12T07:32:08.107Z,18.89
2017-08-12T07:33:18.391Z,18.89
2017-08-12T07:34:28.666Z,18.94
2017-08-12T07:35:38.630Z,19
2017-08-12T07:36:48.591Z,19.04
2017-08-12T07:37:58.865Z,18.98
2017-08-12T07:39:09.145Z,18.7
2017-08-12T07:40:19.105Z,18.66
2017-08-12T07:41:29.386Z,18.66
2017-08-12T07:42:39.358Z,18.71
2017-08-12T07:43:49.328Z,18.85
2017-08-12T07:44:59.286Z,18.79
2017-08-12T07:46:09.564Z,18.89
2017-08-12T07:47:19.212Z,18.94
2017-08-12T07:48:29.498Z,18.89
2017-08-12T07:49:39.773Z,19.07
2017-08-12T07:50:49.737Z,19.05
2017-08-12T07:51:59.699Z,19.05
2017-08-12T07:53:09.681Z,18.91
2017-08-12T07:54:19.330Z,18.86
2017-08-12T07:55:29.611Z,18.88
2017-08-12T07:56:39.578Z,18.82
2017-08-12T07:57:49.540Z,18.82
2017-08-12T07:58:59.503Z,18.91
2017-08-12T08:00:09.781Z,18.78
2017-08-12T08:01:19.779Z,18.78
2017-08-12T08:02:29.756Z,18.78
2017-08-12T08:03:39.719Z,18.67
2017-08-12T08:04:49.994Z,18.68
2017-08-12T08:05:59.642Z,18.63
2017-08-12T08:07:09.917Z,18.66
2017-08-12T08:08:20.196Z,18.6
2017-08-12T08:09:30.473Z,18.73
2017-08-12T08:10:40.749Z,18.73
2017-08-12T08:11:51.033Z,18.82
2017-08-12T08:13:01.315Z,18.86
2017-08-12T08:14:11.599Z,18.81
2017-08-12T08:15:21.566Z,18.92
2017-08-12T08:16:31.527Z,18.97
2017-08-12T08:17:41.818Z,19.05
2017-08-12T08:18:51.465Z,19.11
2017-08-12T08:20:01.426Z,19.17
2017-08-12T08:21:11.396Z,19.23
2017-08-12T08:22:21.672Z,19.29
2017-08-12T08:23:31.639Z,19.38
2017-08-12T08:24:41.926Z,19.57
2017-08-12T08:25:52.201Z,19.59
2017-08-12T08:27:02.169Z,19.72
2017-08-12T08:28:12.446Z,19.79
2017-08-12T08:29:22.731Z,19.78
2017-08-12T08:30:32.694Z,19.84
2017-08-12T08:31:42.653Z,19.92
2017-08-12T08:32:52.930Z,19.96
2017-08-12T08:34:02.895Z,20.02
2017-08-12T08:35:12.888Z,20
2017-08-12T08:36:22.851Z,20.08
2017-08-12T08:37:33.125Z,20.12
2017-08-12T08:38:43.402Z,20.19
2017-08-12T08:39:53.683Z,20.1
2017-08-12T08:41:03.650Z,20.17
2017-08-12T08:42:13.618Z,20.17
2017-08-12T08:43:22.951Z,20.08
2017-08-12T08:44:33.234Z,20.08
2017-08-12T08:45:43.515Z,20.1
2017-08-12T08:46:53.791Z,20.07
2017-08-12T08:48:03.758Z,20.04
2017-08-12T08:49:13.721Z,20.08
2017-08-12T08:50:23.685Z,19.96
2017-08-12T08:51:33.645Z,19.97
2017-08-12T08:52:43.928Z,20.02
2017-08-12T08:53:53.902Z,19.94
2017-08-12T08:55:04.182Z,20
2017-08-12T08:56:14.466Z,19.92
2017-08-12T08:57:24.424Z,19.84
2017-08-12T08:58:34.699Z,19.84
2017-08-12T08:59:44.343Z,19.9
2017-08-12T09:00:54.625Z,19.96
2017-08-12T09:02:04.272Z,19.97
2017-08-12T09:03:14.548Z,19.9
2017-08-12T09:04:24.831Z,19.78
2017-08-12T09:05:35.106Z,19.96
2017-08-12T09:06:45.065Z,20.02
2017-08-12T09:07:55.344Z,19.96
2017-08-12T09:09:05.303Z,19.82
2017-08-12T09:10:14.950Z,19.82
2017-08-12T09:11:25.228Z,19.77
2017-08-12T09:12:35.506Z,19.93
2017-08-12T09:13:45.787Z,19.93
2017-08-12T09:14:56.060Z,20.03
2017-08-12T09:16:06.023Z,19.94
2017-08-12T09:17:15.675Z,19.94
2017-08-12T09:18:25.965Z,20.18
2017-08-12T09:19:36.241Z,19.99
2017-08-12T09:20:46.518Z,20.12
2017-08-12T09:21:56.831Z,20.15
2017-08-12T09:23:06.793Z,20.24
2017-08-12T09:24:17.076Z,20.27
2017-08-12T09:25:27.042Z,20.3
2017-08-12T09:26:37.323Z,20.29
2017-08-12T09:27:47.283Z,20.36
2017-08-12T09:28:57.562Z,20.3
2017-08-12T09:30:07.844Z,20.37
2017-08-12T09:31:17.805Z,20.3
2017-08-12T09:32:28.081Z,20.36
2017-08-12T09:33:38.357Z,20.32
2017-08-12T09:34:48.318Z,20.5
2017-08-12T09:35:58.280Z,20.49
2017-08-12T09:37:08.250Z,20.46
2017-08-12T09:38:18.248Z,20.6
2017-08-12T09:39:28.528Z,20.73
2017-08-12T09:40:38.807Z,20.77
2017-08-12T09:41:48.456Z,20.85
2017-08-12T09:42:58.732Z,20.89
2017-08-12T09:44:09.012Z,20.93
2017-08-12T09:45:19.288Z,20.95
2017-08-12T09:46:29.565Z,20.92
2017-08-12T09:47:39.850Z,20.83
2017-08-12T09:48:49.811Z,20.93
2017-08-12T09:50:00.093Z,21
2017-08-12T09:51:10.376Z,20.95
2017-08-12T09:52:20.653Z,20.95
2017-08-12T09:53:30.931Z,20.89
2017-08-12T09:54:40.895Z,20.83
2017-08-12T09:55:50.859Z,20.85
2017-08-12T09:57:01.134Z,20.75
2017-08-12T09:58:11.097Z,20.75
2017-08-12T09:59:21.371Z,20.75
2017-08-12T10:00:31.652Z,20.86
2017-08-12T10:01:41.929Z,21.03
2017-08-12T10:02:52.212Z,20.98
2017-08-12T10:04:02.490Z,21.05
2017-08-12T10:05:12.456Z,21.03
2017-08-12T10:06:22.733Z,21.11
2017-08-12T10:07:32.701Z,21.28
2017-08-12T10:08:42.670Z,21.4
2017-08-12T10:09:52.632Z,21.41
2017-08-12T10:11:02.911Z,21.53
2017-08-12T10:12:12.876Z,21.56
2017-08-12T10:13:22.210Z,21.56
2017-08-12T10:14:32.491Z,21.65
2017-08-12T10:15:42.456Z,21.53
2017-08-12T10:16:52.735Z,21.53
2017-08-12T10:18:03.035Z,21.68
2017-08-12T10:19:13.317Z,21.66
2017-08-12T10:20:23.283Z,21.6
2017-08-12T10:21:33.565Z,21.6
2017-08-12T10:22:43.846Z,21.51
2017-08-12T10:23:53.807Z,21.54
2017-08-12T10:25:04.089Z,21.48
2017-08-12T10:26:14.053Z,21.48
2017-08-12T10:27:24.336Z,21.54
2017-08-12T10:28:34.616Z,21.6
2017-08-12T10:29:44.897Z,21.6
2017-08-12T10:30:55.273Z,21.59
2017-08-12T10:32:05.237Z,21.58
2017-08-12T10:33:15.203Z,21.59
2017-08-12T10:34:25.168Z,21.5
2017-08-12T10:35:35.447Z,21.56
2017-08-12T10:36:45.095Z,21.63
2017-08-12T10:37:55.058Z,21.66
2017-08-12T10:39:05.024Z,21.84
2017-08-12T10:40:14.991Z,21.91
2017-08-12T10:41:25.290Z,21.85
2017-08-12T10:42:35.252Z,21.91
2017-08-12T10:43:45.214Z,21.83
2017-08-12T10:44:55.490Z,21.84
2017-08-12T10:46:05.457Z,21.69
2017-08-12T10:47:15.733Z,21.81
2017-08-12T10:48:25.386Z,21.77
2017-08-12T10:49:35.036Z,21.75
2017-08-12T10:50:45.314Z,21.74
2017-08-12T10:51:54.965Z,21.72
2017-08-12T10:53:04.929Z,21.69
2017-08-12T10:54:15.211Z,21.54
2017-08-12T10:55:25.489Z,21.72
2017-08-12T10:56:35.454Z,21.65
2017-08-12T10:57:45.420Z,21.58
2017-08-12T10:58:55.722Z,21.56
2017-08-12T11:00:06.018Z,21.62
2017-08-12T11:01:15.668Z,21.58
2017-08-12T11:02:25.636Z,21.6
2017-08-12T11:03:35.605Z,21.53
2017-08-12T11:04:45.884Z,21.47
2017-08-12T11:05:56.161Z,21.5
2017-08-12T11:07:06.436Z,21.51
2017-08-12T11:08:16.719Z,21.5
2017-08-12T11:09:27.002Z,21.47
2017-08-12T11:10:36.991Z,21.56
2017-08-12T11:11:47.289Z,21.54
2017-08-12T11:12:57.575Z,21.72
2017-08-12T11:14:07.852Z,21.77
2017-08-12T11:15:17.818Z,21.81
2017-08-12T11:16:27.780Z,21.68
2017-08-12T11:17:37.743Z,21.77
2017-08-12T11:18:48.019Z,21.78
2017-08-12T11:19:57.983Z,21.72
2017-08-12T11:21:08.266Z,21.8
2017-08-12T11:22:18.544Z,21.91
2017-08-12T11:23:28.199Z,21.89
2017-08-12T11:24:37.850Z,22.18
2017-08-12T11:25:48.128Z,22.33
2017-08-12T11:26:58.093Z,22.44
2017-08-12T11:28:08.371Z,22.68
2017-08-12T11:29:18.653Z,22.86
2017-08-12T11:30:28.305Z,22.99
2017-08-12T11:31:38.588Z,23.14
2017-08-12T11:32:48.869Z,23.18
2017-08-12T11:33:59.148Z,23.42
2017-08-12T11:35:09.430Z,23.63
2017-08-12T11:36:19.395Z,23.82
2017-08-12T11:37:29.682Z,24
2017-08-12T11:38:39.964Z,24.18
2017-08-12T11:39:50.250Z,24.37
2017-08-12T11:41:00.218Z,24.55
2017-08-12T11:42:10.508Z,24.47
2017-08-12T11:43:20.477Z,24.47
2017-08-12T11:44:30.757Z,24.46
2017-08-12T11:45:40.725Z,24.53
2017-08-12T11:46:50.695Z,24.37
2017-08-12T11:48:00.666Z,24.46
2017-08-12T11:49:10.323Z,24.28
2017-08-12T11:50:20.291Z,23.99
2017-08-12T11:51:30.574Z,23.92
2017-08-12T11:52:40.545Z,23.69
2017-08-12T11:53:50.827Z,23.54
2017-08-12T11:55:01.104Z,23.37
2017-08-12T11:56:11.104Z,23.32
2017-08-12T11:57:21.076Z,23.11
2017-08-12T11:58:31.360Z,23.14
2017-08-12T11:59:41.325Z,23.26
2017-08-12T12:00:58.894Z,23.54
2017-08-12T12:02:08.879Z,24.14
2017-08-12T12:03:19.156Z,24.58
2017-08-12T12:04:29.443Z,25
2017-08-12T12:05:39.419Z,25.49
2017-08-12T12:06:49.700Z,25.26
2017-08-12T12:07:59.982Z,25.14
2017-08-12T12:09:09.953Z,25.26
2017-08-12T12:10:20.235Z,25.46
2017-08-12T12:11:30.557Z,25.91
2017-08-12T12:12:40.527Z,26.24
2017-08-12T12:13:50.809Z,26.61
2017-08-12T12:15:00.792Z,27.11
2017-08-12T12:16:10.454Z,27.28
2017-08-12T12:17:20.421Z,27.41
2017-08-12T12:18:30.075Z,27.11
2017-08-12T12:19:40.047Z,26.82
2017-08-12T12:20:49.702Z,26.61
2017-08-12T12:21:59.987Z,26.86
2017-08-12T12:23:10.270Z,27.15
2017-08-12T12:24:20.556Z,27.68
2017-08-12T12:25:30.530Z,27.85
2017-08-12T12:26:40.816Z,27.48
2017-08-12T12:27:50.474Z,27.16
2017-08-12T12:29:00.756Z,26.76
2017-08-12T12:30:11.044Z,26.6
2017-08-12T12:31:21.327Z,26.3
2017-08-12T12:32:30.991Z,26.07
2017-08-12T12:33:42.966Z,25.78
2017-08-12T12:34:53.249Z,25.74
2017-08-12T12:36:03.543Z,25.52
2017-08-12T12:37:13.512Z,25.48
2017-08-12T12:38:23.163Z,25.46
2017-08-12T12:39:32.817Z,25.46
2017-08-12T12:40:43.100Z,25.46
2017-08-12T12:41:52.438Z,25.55
2017-08-12T12:43:02.089Z,25.51
2017-08-12T12:44:12.376Z,25.25
2017-08-12T12:45:22.656Z,25.03
2017-08-12T12:46:32.941Z,24.71
2017-08-12T12:47:42.907Z,24.4
2017-08-12T12:48:52.879Z,24.26
2017-08-12T12:50:02.843Z,24.25
2017-08-12T12:51:12.812Z,24.59
2017-08-12T12:52:23.095Z,24.86
2017-08-12T12:53:33.382Z,25.25
2017-08-12T12:54:43.040Z,25.63
2017-08-12T12:55:53.319Z,25.95
2017-08-12T12:57:03.601Z,25.63
2017-08-12T12:58:13.882Z,25.52
2017-08-12T12:59:23.540Z,25.58
2017-08-12T13:00:33.509Z,25.46
2017-08-12T13:01:43.791Z,25.41
2017-08-12T13:02:54.074Z,25.76
2017-08-12T13:04:04.363Z,26.39
2017-08-12T13:05:14.331Z,26.44
2017-08-12T13:06:24.614Z,25.98
2017-08-12T13:07:34.895Z,25.59
2017-08-12T13:08:45.179Z,25.41
2017-08-12T13:09:55.460Z,25.11
2017-08-12T13:11:05.433Z,24.86
2017-08-12T13:12:15.731Z,24.94
2017-08-12T13:13:26.011Z,24.88
2017-08-12T13:14:36.297Z,24.69
2017-08-12T13:15:46.576Z,24.55
2017-08-12T13:16:56.856Z,24.37
2017-08-12T13:18:06.516Z,24.51
2017-08-12T13:19:16.482Z,24.43
2017-08-12T13:20:26.460Z,24.38
2017-08-12T13:21:36.741Z,24.22
2017-08-12T13:22:46.706Z,24.51
2017-08-12T13:23:56.677Z,24.74
2017-08-12T13:25:06.974Z,25.19
2017-08-12T13:26:16.626Z,25.58
2017-08-12T13:27:26.594Z,26.13
2017-08-12T13:28:36.247Z,26.56
2017-08-12T13:29:46.529Z,26.71
2017-08-12T13:30:56.816Z,27.03
2017-08-12T13:32:07.106Z,27.16
2017-08-12T13:33:17.401Z,27.45
2017-08-12T13:34:27.373Z,27.76
2017-08-12T13:35:37.351Z,27.9
2017-08-12T13:36:47.648Z,28.22
2017-08-12T13:37:57.933Z,28.35
2017-08-12T13:39:08.243Z,28.33
2017-08-12T13:40:18.527Z,28.15
2017-08-12T13:41:28.823Z,28.33
2017-08-12T13:42:39.115Z,27.9
2017-08-12T13:43:49.411Z,27.58
2017-08-12T13:44:59.693Z,27.43
2017-08-12T13:46:09.977Z,27.44
2017-08-12T13:47:19.947Z,27.67
2017-08-12T13:48:29.918Z,27.98
2017-08-12T13:49:40.202Z,27.85
2017-08-12T13:50:50.177Z,28.01
2017-08-12T13:52:00.147Z,28.06
2017-08-12T13:53:10.128Z,28.35
2017-08-12T13:54:20.099Z,28.68
2017-08-12T13:55:29.757Z,28.87
2017-08-12T13:56:39.728Z,28.64
2017-08-12T13:57:50.015Z,28.27
2017-08-12T13:59:00.302Z,27.98
2017-08-12T14:00:10.586Z,28.01
2017-08-12T14:01:20.877Z,28.09
2017-08-12T14:02:30.545Z,27.94
2017-08-12T14:03:40.212Z,27.86
2017-08-12T14:04:50.495Z,27.43
2017-08-12T14:06:00.464Z,27.5
2017-08-12T14:07:12.645Z,27.23
2017-08-12T14:08:22.648Z,27.2
2017-08-12T14:09:32.630Z,27.35
2017-08-12T14:10:42.920Z,27.75
2017-08-12T14:11:53.206Z,27.81
2017-08-12T14:13:02.868Z,28
2017-08-12T14:14:13.152Z,27.66
2017-08-12T14:15:23.121Z,27.79
2017-08-12T14:16:33.433Z,28.01
2017-08-12T14:17:43.399Z,27.98
2017-08-12T14:18:53.366Z,28.1
2017-08-12T14:20:03.025Z,28.19
2017-08-12T14:21:13.314Z,28.12
2017-08-12T14:22:23.293Z,28.34
2017-08-12T14:23:33.262Z,28.5
2017-08-12T14:24:43.548Z,28.55
2017-08-12T14:25:53.832Z,28.53
2017-08-12T14:27:03.804Z,28.22
2017-08-12T14:28:14.090Z,28.16
2017-08-12T14:29:24.372Z,27.78
2017-08-12T14:30:34.655Z,27.53
2017-08-12T14:31:44.940Z,27.43
2017-08-12T14:32:54.906Z,27.34
2017-08-12T14:34:05.195Z,27.13
2017-08-12T14:35:15.477Z,26.68
2017-08-12T14:36:25.769Z,26.61
2017-08-12T14:37:36.052Z,26.52
2017-08-12T14:38:46.343Z,26.44
2017-08-12T14:39:56.001Z,26.01
2017-08-12T14:41:05.979Z,25.67
2017-08-12T14:42:16.263Z,25.51
2017-08-12T14:43:26.560Z,24.56
2017-08-12T14:44:36.839Z,24.07
2017-08-12T14:45:46.804Z,23.42
2017-08-12T14:46:57.089Z,22.63
2017-08-12T14:48:07.377Z,21.62
2017-08-12T14:49:17.028Z,20.83
2017-08-12T14:50:26.996Z,20.22
2017-08-12T14:51:37.278Z,18.42
2017-08-12T14:52:47.249Z,17.49
2017-08-12T14:53:57.526Z,16.62
2017-08-12T14:55:07.500Z,16.4
2017-08-12T14:56:17.788Z,16.26
2017-08-12T14:57:28.082Z,16.12
2017-08-12T14:58:38.360Z,16.05
2017-08-12T14:59:48.635Z,16.06
2017-08-12T15:00:58.599Z,15.91
2017-08-12T15:02:08.558Z,15.94
2017-08-12T15:03:18.847Z,15.84
2017-08-12T15:04:29.121Z,15.87
2017-08-12T15:05:39.412Z,15.8
2017-08-12T15:06:49.377Z,15.8